sensor_id;sensor_type;location;lat;lon;timestamp;P1;durP1;ratioP1;P2;durP2;ratioP2
25079;SDS011;13071;48.868;9.996;2023-04-24T00:02:11;1.17;;;1.08;;
25079;SDS011;13071;48.868;9.996;2023-04-24T00:04:38;3.40;;;1.00;;
25079;SDS011;13071;48.868;9.996;2023-04-24T00:07:05;0.82;;;0.82;;
25079;SDS011;13071;48.868;9.996;2023-04-24T00:09:32;1.10;;;0.90;;
25079;SDS011;13071;48.868;9.996;2023-04-24T00:11:59;1.80;;;0.98;;
25079;SDS011;13071;48.868;9.996;2023-04-24T00:14:29;0.95;;;0.90;;
25079;SDS011;13071;48.868;9.996;2023-04-24T00:16:56;0.93;;;0.93;;
25079;SDS011;13071;48.868;9.996;2023-04-24T00:19:23;0.85;;;0.80;;
25079;SDS011;13071;48.868;9.996;2023-04-24T00:21:49;1.00;;;1.00;;
25079;SDS011;13071;48.868;9.996;2023-04-24T00:24:16;2.17;;;1.20;;
25079;SDS011;13071;48.868;9.996;2023-04-24T00:26:43;1.23;;;0.90;;
25079;SDS011;13071;48.868;9.996;2023-04-24T00:29:10;1.08;;;1.02;;
25079;SDS011;13071;48.868;9.996;2023-04-24T00:31:37;1.00;;;1.00;;
25079;SDS011;13071;48.868;9.996;2023-04-24T00:34:04;0.93;;;0.93;;
25079;SDS011;13071;48.868;9.996;2023-04-24T00:36:31;1.20;;;1.02;;
25079;SDS011;13071;48.868;9.996;2023-04-24T00:38:58;2.08;;;1.00;;
25079;SDS011;13071;48.868;9.996;2023-04-24T00:41:24;1.30;;;1.08;;
25079;SDS011;13071;48.868;9.996;2023-04-24T00:43:51;2.13;;;1.42;;
25079;SDS011;13071;48.868;9.996;2023-04-24T00:46:18;1.63;;;1.02;;
25079;SDS011;13071;48.868;9.996;2023-04-24T00:48:46;2.03;;;1.10;;
25079;SDS011;13071;48.868;9.996;2023-04-24T00:51:13;0.80;;;0.80;;
25079;SDS011;13071;48.868;9.996;2023-04-24T00:53:40;1.67;;;1.02;;
25079;SDS011;13071;48.868;9.996;2023-04-24T00:56:07;1.73;;;1.40;;
25079;SDS011;13071;48.868;9.996;2023-04-24T00:58:34;1.42;;;1.33;;
25079;SDS011;13071;48.868;9.996;2023-04-24T01:01:00;1.23;;;1.10;;
25079;SDS011;13071;48.868;9.996;2023-04-24T01:03:32;1.50;;;1.40;;
25079;SDS011;13071;48.868;9.996;2023-04-24T01:06:03;2.22;;;1.10;;
25079;SDS011;13071;48.868;9.996;2023-04-24T01:08:31;1.33;;;1.23;;
25079;SDS011;13071;48.868;9.996;2023-04-24T01:10:58;0.88;;;0.88;;
25079;SDS011;13071;48.868;9.996;2023-04-24T01:13:27;4.13;;;1.33;;
25079;SDS011;13071;48.868;9.996;2023-04-24T01:15:53;1.38;;;1.27;;
25079;SDS011;13071;48.868;9.996;2023-04-24T01:18:20;1.38;;;1.10;;
25079;SDS011;13071;48.868;9.996;2023-04-24T01:20:47;2.17;;;1.45;;
25079;SDS011;13071;48.868;9.996;2023-04-24T01:23:18;1.45;;;1.30;;
25079;SDS011;13071;48.868;9.996;2023-04-24T01:25:45;2.88;;;1.50;;
25079;SDS011;13071;48.868;9.996;2023-04-24T01:28:12;1.20;;;1.05;;
25079;SDS011;13071;48.868;9.996;2023-04-24T01:30:40;2.25;;;1.23;;
25079;SDS011;13071;48.868;9.996;2023-04-24T01:33:06;0.95;;;0.95;;
25079;SDS011;13071;48.868;9.996;2023-04-24T01:35:33;1.75;;;1.10;;
25079;SDS011;13071;48.868;9.996;2023-04-24T01:38:01;1.42;;;1.33;;
25079;SDS011;13071;48.868;9.996;2023-04-24T01:40:29;1.88;;;1.35;;
25079;SDS011;13071;48.868;9.996;2023-04-24T01:42:56;1.52;;;1.42;;
25079;SDS011;13071;48.868;9.996;2023-04-24T01:45:24;1.33;;;1.33;;
25079;SDS011;13071;48.868;9.996;2023-04-24T01:47:51;1.55;;;1.27;;
25079;SDS011;13071;48.868;9.996;2023-04-24T01:50:18;2.20;;;1.27;;
25079;SDS011;13071;48.868;9.996;2023-04-24T01:52:44;1.42;;;1.33;;
25079;SDS011;13071;48.868;9.996;2023-04-24T01:55:11;1.25;;;1.15;;
25079;SDS011;13071;48.868;9.996;2023-04-24T01:57:39;1.58;;;1.30;;
25079;SDS011;13071;48.868;9.996;2023-04-24T02:00:06;1.90;;;1.23;;
25079;SDS011;13071;48.868;9.996;2023-04-24T02:02:34;2.88;;;1.25;;
25079;SDS011;13071;48.868;9.996;2023-04-24T02:05:00;1.65;;;1.27;;
25079;SDS011;13071;48.868;9.996;2023-04-24T02:07:27;1.23;;;1.13;;
25079;SDS011;13071;48.868;9.996;2023-04-24T02:09:54;1.70;;;1.40;;
25079;SDS011;13071;48.868;9.996;2023-04-24T02:12:21;1.42;;;1.33;;
25079;SDS011;13071;48.868;9.996;2023-04-24T02:14:49;1.25;;;1.17;;
25079;SDS011;13071;48.868;9.996;2023-04-24T02:17:15;0.98;;;0.98;;
25079;SDS011;13071;48.868;9.996;2023-04-24T02:19:42;1.20;;;1.10;;
25079;SDS011;13071;48.868;9.996;2023-04-24T02:22:09;1.10;;;0.98;;
25079;SDS011;13071;48.868;9.996;2023-04-24T02:24:35;1.60;;;1.50;;
25079;SDS011;13071;48.868;9.996;2023-04-24T02:27:02;1.20;;;1.10;;
25079;SDS011;13071;48.868;9.996;2023-04-24T02:29:29;1.40;;;1.25;;
25079;SDS011;13071;48.868;9.996;2023-04-24T02:31:57;2.10;;;1.33;;
25079;SDS011;13071;48.868;9.996;2023-04-24T02:34:24;1.85;;;1.00;;
25079;SDS011;13071;48.868;9.996;2023-04-24T02:36:50;1.85;;;1.20;;
25079;SDS011;13071;48.868;9.996;2023-04-24T02:39:18;0.95;;;0.95;;
25079;SDS011;13071;48.868;9.996;2023-04-24T02:41:45;1.20;;;1.05;;
25079;SDS011;13071;48.868;9.996;2023-04-24T02:44:12;3.08;;;1.00;;
25079;SDS011;13071;48.868;9.996;2023-04-24T02:46:38;2.15;;;0.95;;
25079;SDS011;13071;48.868;9.996;2023-04-24T02:49:07;0.90;;;0.90;;
25079;SDS011;13071;48.868;9.996;2023-04-24T02:51:34;1.67;;;0.98;;
25079;SDS011;13071;48.868;9.996;2023-04-24T02:54:03;1.23;;;1.13;;
25079;SDS011;13071;48.868;9.996;2023-04-24T02:56:29;1.67;;;1.30;;
25079;SDS011;13071;48.868;9.996;2023-04-24T02:58:56;1.85;;;1.30;;
25079;SDS011;13071;48.868;9.996;2023-04-24T03:01:22;0.80;;;0.80;;
25079;SDS011;13071;48.868;9.996;2023-04-24T03:03:50;1.00;;;1.00;;
25079;SDS011;13071;48.868;9.996;2023-04-24T03:06:17;2.47;;;1.17;;
25079;SDS011;13071;48.868;9.996;2023-04-24T03:08:46;1.20;;;1.10;;
25079;SDS011;13071;48.868;9.996;2023-04-24T03:11:12;1.20;;;1.10;;
25079;SDS011;13071;48.868;9.996;2023-04-24T03:13:39;1.33;;;1.23;;
25079;SDS011;13071;48.868;9.996;2023-04-24T03:16:05;0.90;;;0.90;;
25079;SDS011;13071;48.868;9.996;2023-04-24T03:18:32;0.98;;;0.98;;
25079;SDS011;13071;48.868;9.996;2023-04-24T03:20:58;1.27;;;0.80;;
25079;SDS011;13071;48.868;9.996;2023-04-24T03:23:26;0.80;;;0.80;;
25079;SDS011;13071;48.868;9.996;2023-04-24T03:25:53;1.00;;;1.00;;
25079;SDS011;13071;48.868;9.996;2023-04-24T03:28:20;1.05;;;0.98;;
25079;SDS011;13071;48.868;9.996;2023-04-24T03:30:46;0.90;;;0.90;;
25079;SDS011;13071;48.868;9.996;2023-04-24T03:33:13;1.02;;;0.93;;
25079;SDS011;13071;48.868;9.996;2023-04-24T03:35:39;2.70;;;1.20;;
25079;SDS011;13071;48.868;9.996;2023-04-24T03:38:06;0.80;;;0.80;;
25079;SDS011;13071;48.868;9.996;2023-04-24T03:40:34;1.00;;;1.00;;
25079;SDS011;13071;48.868;9.996;2023-04-24T03:43:01;1.30;;;1.08;;
25079;SDS011;13071;48.868;9.996;2023-04-24T03:45:27;1.50;;;1.20;;
25079;SDS011;13071;48.868;9.996;2023-04-24T03:47:54;1.13;;;1.05;;
25079;SDS011;13071;48.868;9.996;2023-04-24T03:50:20;1.00;;;1.00;;
25079;SDS011;13071;48.868;9.996;2023-04-24T03:52:47;1.08;;;0.98;;
25079;SDS011;13071;48.868;9.996;2023-04-24T03:55:13;1.63;;;1.10;;
25079;SDS011;13071;48.868;9.996;2023-04-24T03:57:42;2.75;;;1.30;;
25079;SDS011;13071;48.868;9.996;2023-04-24T04:00:09;1.30;;;1.20;;
25079;SDS011;13071;48.868;9.996;2023-04-24T04:02:36;1.13;;;1.13;;
25079;SDS011;13071;48.868;9.996;2023-04-24T04:05:03;1.90;;;1.40;;
25079;SDS011;13071;48.868;9.996;2023-04-24T04:07:30;1.65;;;1.20;;
25079;SDS011;13071;48.868;9.996;2023-04-24T04:09:56;1.17;;;1.17;;
25079;SDS011;13071;48.868;9.996;2023-04-24T04:12:23;1.17;;;1.10;;
25079;SDS011;13071;48.868;9.996;2023-04-24T04:14:51;1.30;;;1.20;;
25079;SDS011;13071;48.868;9.996;2023-04-24T04:17:17;1.30;;;1.20;;
25079;SDS011;13071;48.868;9.996;2023-04-24T04:19:44;1.38;;;1.27;;
25079;SDS011;13071;48.868;9.996;2023-04-24T04:22:11;0.95;;;0.93;;
25079;SDS011;13071;48.868;9.996;2023-04-24T04:24:37;1.23;;;0.98;;
25079;SDS011;13071;48.868;9.996;2023-04-24T04:27:05;1.00;;;1.00;;
25079;SDS011;13071;48.868;9.996;2023-04-24T04:29:33;3.72;;;1.20;;
25079;SDS011;13071;48.868;9.996;2023-04-24T04:32:01;1.95;;;1.17;;
25079;SDS011;13071;48.868;9.996;2023-04-24T04:34:28;3.90;;;1.30;;
25079;SDS011;13071;48.868;9.996;2023-04-24T04:36:54;1.10;;;1.10;;
25079;SDS011;13071;48.868;9.996;2023-04-24T04:39:21;1.40;;;1.10;;
25079;SDS011;13071;48.868;9.996;2023-04-24T04:41:47;1.35;;;1.25;;
25079;SDS011;13071;48.868;9.996;2023-04-24T04:44:15;1.10;;;1.10;;
25079;SDS011;13071;48.868;9.996;2023-04-24T04:46:41;2.72;;;1.38;;
25079;SDS011;13071;48.868;9.996;2023-04-24T04:49:10;1.45;;;1.20;;
25079;SDS011;13071;48.868;9.996;2023-04-24T04:51:37;1.23;;;1.13;;
25079;SDS011;13071;48.868;9.996;2023-04-24T04:54:03;1.40;;;1.30;;
25079;SDS011;13071;48.868;9.996;2023-04-24T04:56:30;1.10;;;1.10;;
25079;SDS011;13071;48.868;9.996;2023-04-24T04:58:56;1.40;;;1.23;;
25079;SDS011;13071;48.868;9.996;2023-04-24T05:01:24;1.83;;;1.17;;
25079;SDS011;13071;48.868;9.996;2023-04-24T05:03:52;1.75;;;1.17;;
25079;SDS011;13071;48.868;9.996;2023-04-24T05:06:20;1.17;;;1.10;;
25079;SDS011;13071;48.868;9.996;2023-04-24T05:08:47;1.27;;;1.27;;
25079;SDS011;13071;48.868;9.996;2023-04-24T05:11:14;1.42;;;1.33;;
25079;SDS011;13071;48.868;9.996;2023-04-24T05:13:40;1.85;;;1.17;;
25079;SDS011;13071;48.868;9.996;2023-04-24T05:16:07;1.02;;;1.02;;
25079;SDS011;13071;48.868;9.996;2023-04-24T05:18:34;1.70;;;1.17;;
25079;SDS011;13071;48.868;9.996;2023-04-24T05:21:00;1.42;;;1.30;;
25079;SDS011;13071;48.868;9.996;2023-04-24T05:23:28;2.00;;;1.25;;
25079;SDS011;13071;48.868;9.996;2023-04-24T05:25:55;1.58;;;0.85;;
25079;SDS011;13071;48.868;9.996;2023-04-24T05:28:22;0.73;;;0.73;;
25079;SDS011;13071;48.868;9.996;2023-04-24T05:30:53;0.80;;;0.70;;
25079;SDS011;13071;48.868;9.996;2023-04-24T05:33:20;0.68;;;0.68;;
25079;SDS011;13071;48.868;9.996;2023-04-24T05:35:47;0.80;;;0.80;;
25079;SDS011;13071;48.868;9.996;2023-04-24T05:38:13;0.70;;;0.70;;
25079;SDS011;13071;48.868;9.996;2023-04-24T05:40:44;0.75;;;0.73;;
25079;SDS011;13071;48.868;9.996;2023-04-24T05:43:10;0.98;;;0.98;;
25079;SDS011;13071;48.868;9.996;2023-04-24T05:45:37;0.88;;;0.88;;
25079;SDS011;13071;48.868;9.996;2023-04-24T05:48:04;1.00;;;1.00;;
25079;SDS011;13071;48.868;9.996;2023-04-24T05:50:31;1.38;;;1.05;;
25079;SDS011;13071;48.868;9.996;2023-04-24T05:52:58;0.93;;;0.93;;
25079;SDS011;13071;48.868;9.996;2023-04-24T05:55:24;2.50;;;1.20;;
25079;SDS011;13071;48.868;9.996;2023-04-24T05:57:52;2.58;;;1.05;;
25079;SDS011;13071;48.868;9.996;2023-04-24T06:00:20;1.60;;;0.88;;
25079;SDS011;13071;48.868;9.996;2023-04-24T06:02:46;2.15;;;0.90;;
25079;SDS011;13071;48.868;9.996;2023-04-24T06:05:13;0.82;;;0.82;;
25079;SDS011;13071;48.868;9.996;2023-04-24T06:07:40;1.98;;;1.40;;
25079;SDS011;13071;48.868;9.996;2023-04-24T06:10:07;1.00;;;1.00;;
25079;SDS011;13071;48.868;9.996;2023-04-24T06:12:34;1.50;;;1.40;;
25079;SDS011;13071;48.868;9.996;2023-04-24T06:15:03;2.45;;;1.63;;
25079;SDS011;13071;48.868;9.996;2023-04-24T06:17:30;1.73;;;1.60;;
25079;SDS011;13071;48.868;9.996;2023-04-24T06:19:57;1.90;;;1.45;;
25079;SDS011;13071;48.868;9.996;2023-04-24T06:22:23;4.47;;;1.95;;
25079;SDS011;13071;48.868;9.996;2023-04-24T06:24:50;2.17;;;1.90;;
25079;SDS011;13071;48.868;9.996;2023-04-24T06:27:17;1.70;;;1.60;;
25079;SDS011;13071;48.868;9.996;2023-04-24T06:29:43;2.28;;;1.50;;
25079;SDS011;13071;48.868;9.996;2023-04-24T06:32:11;2.63;;;1.80;;
25079;SDS011;13071;48.868;9.996;2023-04-24T06:34:38;1.65;;;1.55;;
25079;SDS011;13071;48.868;9.996;2023-04-24T06:37:04;3.55;;;1.35;;
25079;SDS011;13071;48.868;9.996;2023-04-24T06:39:31;3.05;;;1.50;;
25079;SDS011;13071;48.868;9.996;2023-04-24T06:41:58;1.80;;;1.27;;
25079;SDS011;13071;48.868;9.996;2023-04-24T06:44:25;1.38;;;1.27;;
25079;SDS011;13071;48.868;9.996;2023-04-24T06:46:52;1.92;;;1.60;;
25079;SDS011;13071;48.868;9.996;2023-04-24T06:49:20;1.30;;;1.30;;
25079;SDS011;13071;48.868;9.996;2023-04-24T06:51:46;2.80;;;1.52;;
25079;SDS011;13071;48.868;9.996;2023-04-24T06:54:13;1.77;;;1.50;;
25079;SDS011;13071;48.868;9.996;2023-04-24T06:56:39;3.08;;;2.05;;
25079;SDS011;13071;48.868;9.996;2023-04-24T06:59:06;1.73;;;1.52;;
25079;SDS011;13071;48.868;9.996;2023-04-24T07:01:32;1.70;;;1.60;;
25079;SDS011;13071;48.868;9.996;2023-04-24T07:03:59;4.03;;;1.70;;
25079;SDS011;13071;48.868;9.996;2023-04-24T07:06:27;6.30;;;2.53;;
25079;SDS011;13071;48.868;9.996;2023-04-24T07:08:55;9.25;;;3.90;;
25079;SDS011;13071;48.868;9.996;2023-04-24T07:11:22;2.60;;;1.80;;
25079;SDS011;13071;48.868;9.996;2023-04-24T07:13:49;22.83;;;6.93;;
25079;SDS011;13071;48.868;9.996;2023-04-24T07:16:16;1.80;;;1.63;;
25079;SDS011;13071;48.868;9.996;2023-04-24T07:18:42;2.08;;;1.73;;
25079;SDS011;13071;48.868;9.996;2023-04-24T07:21:09;3.60;;;1.90;;
25079;SDS011;13071;48.868;9.996;2023-04-24T07:23:37;2.05;;;1.75;;
25079;SDS011;13071;48.868;9.996;2023-04-24T07:26:06;10.88;;;3.65;;
25079;SDS011;13071;48.868;9.996;2023-04-24T07:28:32;2.47;;;1.83;;
25079;SDS011;13071;48.868;9.996;2023-04-24T07:30:59;5.47;;;2.63;;
25079;SDS011;13071;48.868;9.996;2023-04-24T07:33:26;2.20;;;2.00;;
25079;SDS011;13071;48.868;9.996;2023-04-24T07:35:52;3.50;;;1.90;;
25079;SDS011;13071;48.868;9.996;2023-04-24T07:38:19;6.03;;;3.47;;
25079;SDS011;13071;48.868;9.996;2023-04-24T07:40:48;2.33;;;2.13;;
25079;SDS011;13071;48.868;9.996;2023-04-24T07:43:15;1.75;;;1.65;;
25079;SDS011;13071;48.868;9.996;2023-04-24T07:45:41;1.70;;;1.60;;
25079;SDS011;13071;48.868;9.996;2023-04-24T07:48:08;3.47;;;1.80;;
25079;SDS011;13071;48.868;9.996;2023-04-24T07:50:35;3.35;;;1.95;;
25079;SDS011;13071;48.868;9.996;2023-04-24T07:53:02;3.03;;;1.50;;
25079;SDS011;13071;48.868;9.996;2023-04-24T07:55:28;1.70;;;1.60;;
25079;SDS011;13071;48.868;9.996;2023-04-24T07:57:56;1.75;;;1.65;;
25079;SDS011;13071;48.868;9.996;2023-04-24T08:00:23;1.88;;;1.73;;
25079;SDS011;13071;48.868;9.996;2023-04-24T08:02:49;2.40;;;1.52;;
25079;SDS011;13071;48.868;9.996;2023-04-24T08:05:16;1.65;;;1.55;;
25079;SDS011;13071;48.868;9.996;2023-04-24T08:07:43;1.75;;;1.65;;
25079;SDS011;13071;48.868;9.996;2023-04-24T08:10:11;3.78;;;2.22;;
25079;SDS011;13071;48.868;9.996;2023-04-24T08:12:38;1.63;;;1.52;;
25079;SDS011;13071;48.868;9.996;2023-04-24T08:15:07;1.90;;;1.80;;
25079;SDS011;13071;48.868;9.996;2023-04-24T08:17:34;2.08;;;1.83;;
25079;SDS011;13071;48.868;9.996;2023-04-24T08:20:01;2.10;;;1.90;;
25079;SDS011;13071;48.868;9.996;2023-04-24T08:22:30;3.42;;;1.85;;
25079;SDS011;13071;48.868;9.996;2023-04-24T08:24:56;1.67;;;1.58;;
25079;SDS011;13071;48.868;9.996;2023-04-24T08:27:25;1.55;;;1.45;;
25079;SDS011;13071;48.868;9.996;2023-04-24T08:29:52;2.28;;;1.73;;
25079;SDS011;13071;48.868;9.996;2023-04-24T08:32:20;1.67;;;1.50;;
25079;SDS011;13071;48.868;9.996;2023-04-24T08:34:47;1.45;;;1.38;;
25079;SDS011;13071;48.868;9.996;2023-04-24T08:37:14;3.88;;;1.40;;
25079;SDS011;13071;48.868;9.996;2023-04-24T08:39:40;1.33;;;1.30;;
25079;SDS011;13071;48.868;9.996;2023-04-24T08:42:07;3.88;;;1.77;;
25079;SDS011;13071;48.868;9.996;2023-04-24T08:44:35;2.50;;;1.70;;
25079;SDS011;13071;48.868;9.996;2023-04-24T08:47:02;1.90;;;1.73;;
25079;SDS011;13071;48.868;9.996;2023-04-24T08:49:30;2.13;;;1.92;;
25079;SDS011;13071;48.868;9.996;2023-04-24T08:51:57;2.20;;;1.90;;
25079;SDS011;13071;48.868;9.996;2023-04-24T08:54:24;2.28;;;2.08;;
25079;SDS011;13071;48.868;9.996;2023-04-24T08:56:51;2.83;;;2.20;;
25079;SDS011;13071;48.868;9.996;2023-04-24T08:59:19;2.75;;;2.05;;
25079;SDS011;13071;48.868;9.996;2023-04-24T09:01:48;2.22;;;2.03;;
25079;SDS011;13071;48.868;9.996;2023-04-24T09:04:17;2.10;;;1.90;;
25079;SDS011;13071;48.868;9.996;2023-04-24T09:06:48;1.60;;;1.45;;
25079;SDS011;13071;48.868;9.996;2023-04-24T09:09:15;2.58;;;1.80;;
25079;SDS011;13071;48.868;9.996;2023-04-24T09:11:43;2.67;;;1.98;;
25079;SDS011;13071;48.868;9.996;2023-04-24T09:14:10;2.20;;;1.83;;
25079;SDS011;13071;48.868;9.996;2023-04-24T09:16:37;3.10;;;1.90;;
25079;SDS011;13071;48.868;9.996;2023-04-24T09:19:03;2.20;;;2.00;;
25079;SDS011;13071;48.868;9.996;2023-04-24T09:21:31;1.67;;;1.50;;
25079;SDS011;13071;48.868;9.996;2023-04-24T09:24:00;1.80;;;1.60;;
25079;SDS011;13071;48.868;9.996;2023-04-24T09:26:28;1.10;;;1.10;;
25079;SDS011;13071;48.868;9.996;2023-04-24T09:28:58;1.52;;;1.40;;
25079;SDS011;13071;48.868;9.996;2023-04-24T09:31:26;1.40;;;1.30;;
25079;SDS011;13071;48.868;9.996;2023-04-24T09:33:54;1.45;;;1.35;;
25079;SDS011;13071;48.868;9.996;2023-04-24T09:36:28;1.90;;;1.20;;
25079;SDS011;13071;48.868;9.996;2023-04-24T09:38:58;5.07;;;1.50;;
25079;SDS011;13071;48.868;9.996;2023-04-24T09:41:26;1.45;;;1.35;;
25079;SDS011;13071;48.868;9.996;2023-04-24T09:43:54;1.48;;;1.38;;
25079;SDS011;13071;48.868;9.996;2023-04-24T09:46:21;1.70;;;1.60;;
25079;SDS011;13071;48.868;9.996;2023-04-24T09:48:55;5.65;;;1.58;;
25079;SDS011;13071;48.868;9.996;2023-04-24T09:51:33;2.67;;;1.67;;
25079;SDS011;13071;48.868;9.996;2023-04-24T09:54:03;2.10;;;1.80;;
25079;SDS011;13071;48.868;9.996;2023-04-24T09:56:32;1.48;;;1.38;;
25079;SDS011;13071;48.868;9.996;2023-04-24T09:59:05;1.80;;;1.70;;
25079;SDS011;13071;48.868;9.996;2023-04-24T10:01:32;1.48;;;1.38;;
25079;SDS011;13071;48.868;9.996;2023-04-24T10:03:59;4.25;;;1.25;;
25079;SDS011;13071;48.868;9.996;2023-04-24T10:06:29;1.40;;;1.30;;
25079;SDS011;13071;48.868;9.996;2023-04-24T10:08:57;1.27;;;1.15;;
25079;SDS011;13071;48.868;9.996;2023-04-24T10:11:26;1.08;;;1.08;;
25079;SDS011;13071;48.868;9.996;2023-04-24T10:13:53;1.33;;;1.20;;
25079;SDS011;13071;48.868;9.996;2023-04-24T10:16:21;2.05;;;1.80;;
25079;SDS011;13071;48.868;9.996;2023-04-24T10:18:48;2.03;;;1.50;;
25079;SDS011;13071;48.868;9.996;2023-04-24T10:21:16;1.65;;;1.55;;
25079;SDS011;13071;48.868;9.996;2023-04-24T10:23:43;1.50;;;1.40;;
25079;SDS011;13071;48.868;9.996;2023-04-24T10:26:12;1.50;;;1.40;;
25079;SDS011;13071;48.868;9.996;2023-04-24T10:28:43;3.10;;;1.50;;
25079;SDS011;13071;48.868;9.996;2023-04-24T10:31:12;1.20;;;1.10;;
25079;SDS011;13071;48.868;9.996;2023-04-24T10:33:39;1.05;;;1.05;;
25079;SDS011;13071;48.868;9.996;2023-04-24T10:36:07;1.30;;;1.20;;
25079;SDS011;13071;48.868;9.996;2023-04-24T10:38:35;2.00;;;1.00;;
25079;SDS011;13071;48.868;9.996;2023-04-24T10:41:08;3.70;;;1.30;;
25079;SDS011;13071;48.868;9.996;2023-04-24T10:43:40;1.17;;;1.17;;
25079;SDS011;13071;48.868;9.996;2023-04-24T10:46:09;1.90;;;1.30;;
25079;SDS011;13071;48.868;9.996;2023-04-24T10:48:36;1.42;;;1.30;;
25079;SDS011;13071;48.868;9.996;2023-04-24T10:51:10;1.30;;;1.20;;
25079;SDS011;13071;48.868;9.996;2023-04-24T10:53:38;1.35;;;1.15;;
25079;SDS011;13071;48.868;9.996;2023-04-24T10:56:05;1.50;;;1.40;;
25079;SDS011;13071;48.868;9.996;2023-04-24T10:58:35;1.38;;;1.27;;
25079;SDS011;13071;48.868;9.996;2023-04-24T11:01:03;1.65;;;1.55;;
25079;SDS011;13071;48.868;9.996;2023-04-24T11:03:31;1.50;;;1.40;;
25079;SDS011;13071;48.868;9.996;2023-04-24T11:06:00;1.63;;;1.33;;
25079;SDS011;13071;48.868;9.996;2023-04-24T11:08:29;1.63;;;1.52;;
25079;SDS011;13071;48.868;9.996;2023-04-24T11:10:57;3.08;;;1.38;;
25079;SDS011;13071;48.868;9.996;2023-04-24T11:16:28;2.15;;;1.20;;
25079;SDS011;13071;48.868;9.996;2023-04-24T11:19:01;1.20;;;1.15;;
25079;SDS011;13071;48.868;9.996;2023-04-24T11:21:36;1.30;;;1.20;;
25079;SDS011;13071;48.868;9.996;2023-04-24T11:24:22;1.70;;;1.50;;
25079;SDS011;13071;48.868;9.996;2023-04-24T11:26:53;1.17;;;1.17;;
25079;SDS011;13071;48.868;9.996;2023-04-24T11:29:21;1.98;;;1.30;;
25079;SDS011;13071;48.868;9.996;2023-04-24T11:31:49;1.30;;;1.20;;
25079;SDS011;13071;48.868;9.996;2023-04-24T11:34:17;1.40;;;1.30;;
25079;SDS011;13071;48.868;9.996;2023-04-24T11:36:44;1.13;;;1.13;;
25079;SDS011;13071;48.868;9.996;2023-04-24T11:39:12;1.23;;;1.13;;
25079;SDS011;13071;48.868;9.996;2023-04-24T11:41:38;1.30;;;1.23;;
25079;SDS011;13071;48.868;9.996;2023-04-24T11:44:06;1.73;;;1.23;;
25079;SDS011;13071;48.868;9.996;2023-04-24T11:46:34;2.15;;;1.08;;
25079;SDS011;13071;48.868;9.996;2023-04-24T11:49:02;1.30;;;1.30;;
25079;SDS011;13071;48.868;9.996;2023-04-24T11:51:32;1.10;;;1.10;;
25079;SDS011;13071;48.868;9.996;2023-04-24T11:53:58;1.48;;;1.38;;
25079;SDS011;13071;48.868;9.996;2023-04-24T11:56:25;1.48;;;1.30;;
25079;SDS011;13071;48.868;9.996;2023-04-24T11:58:52;1.98;;;1.30;;
25079;SDS011;13071;48.868;9.996;2023-04-24T12:01:19;2.88;;;1.45;;
25079;SDS011;13071;48.868;9.996;2023-04-24T12:03:47;1.35;;;1.25;;
25079;SDS011;13071;48.868;9.996;2023-04-24T12:06:16;1.55;;;1.42;;
25079;SDS011;13071;48.868;9.996;2023-04-24T12:08:46;3.63;;;1.60;;
25079;SDS011;13071;48.868;9.996;2023-04-24T12:11:14;2.05;;;1.40;;
25079;SDS011;13071;48.868;9.996;2023-04-24T12:13:43;1.58;;;1.50;;
25079;SDS011;13071;48.868;9.996;2023-04-24T12:16:11;3.80;;;1.38;;
25079;SDS011;13071;48.868;9.996;2023-04-24T12:18:42;2.38;;;1.30;;
25079;SDS011;13071;48.868;9.996;2023-04-24T12:21:19;1.27;;;1.23;;
25079;SDS011;13071;48.868;9.996;2023-04-24T12:23:49;1.40;;;1.30;;
25079;SDS011;13071;48.868;9.996;2023-04-24T12:26:16;2.17;;;1.30;;
25079;SDS011;13071;48.868;9.996;2023-04-24T12:28:45;1.67;;;1.55;;
25079;SDS011;13071;48.868;9.996;2023-04-24T12:31:13;1.38;;;1.27;;
25079;SDS011;13071;48.868;9.996;2023-04-24T12:33:40;1.30;;;1.15;;
25079;SDS011;13071;48.868;9.996;2023-04-24T12:36:09;1.48;;;1.38;;
25079;SDS011;13071;48.868;9.996;2023-04-24T12:38:37;1.40;;;1.40;;
25079;SDS011;13071;48.868;9.996;2023-04-24T12:41:08;1.60;;;1.50;;
25079;SDS011;13071;48.868;9.996;2023-04-24T12:43:36;1.63;;;1.20;;
25079;SDS011;13071;48.868;9.996;2023-04-24T12:46:03;1.58;;;1.27;;
25079;SDS011;13071;48.868;9.996;2023-04-24T12:48:30;1.50;;;1.40;;
25079;SDS011;13071;48.868;9.996;2023-04-24T12:50:57;1.30;;;1.20;;
25079;SDS011;13071;48.868;9.996;2023-04-24T12:53:26;1.15;;;1.15;;
25079;SDS011;13071;48.868;9.996;2023-04-24T12:55:54;1.50;;;1.40;;
25079;SDS011;13071;48.868;9.996;2023-04-24T12:58:25;1.42;;;1.33;;
25079;SDS011;13071;48.868;9.996;2023-04-24T13:00:51;1.50;;;1.40;;
25079;SDS011;13071;48.868;9.996;2023-04-24T13:03:18;2.72;;;1.63;;
25079;SDS011;13071;48.868;9.996;2023-04-24T13:05:45;1.58;;;1.33;;
25079;SDS011;13071;48.868;9.996;2023-04-24T13:08:11;2.60;;;1.70;;
25079;SDS011;13071;48.868;9.996;2023-04-24T13:10:39;1.48;;;1.38;;
25079;SDS011;13071;48.868;9.996;2023-04-24T13:13:06;1.75;;;1.48;;
25079;SDS011;13071;48.868;9.996;2023-04-24T13:15:34;1.48;;;1.38;;
25079;SDS011;13071;48.868;9.996;2023-04-24T13:18:00;1.83;;;1.67;;
25079;SDS011;13071;48.868;9.996;2023-04-24T13:20:27;1.27;;;1.27;;
25079;SDS011;13071;48.868;9.996;2023-04-24T13:22:54;1.20;;;1.10;;
25079;SDS011;13071;48.868;9.996;2023-04-24T13:25:20;1.30;;;1.20;;
25079;SDS011;13071;48.868;9.996;2023-04-24T13:27:48;1.95;;;1.33;;
25079;SDS011;13071;48.868;9.996;2023-04-24T13:30:15;1.40;;;1.30;;
25079;SDS011;13071;48.868;9.996;2023-04-24T13:32:43;2.40;;;1.60;;
25079;SDS011;13071;48.868;9.996;2023-04-24T13:35:10;1.17;;;1.00;;
25079;SDS011;13071;48.868;9.996;2023-04-24T13:37:37;7.28;;;1.63;;
25079;SDS011;13071;48.868;9.996;2023-04-24T13:40:04;1.40;;;1.30;;
25079;SDS011;13071;48.868;9.996;2023-04-24T13:42:32;1.95;;;1.48;;
25079;SDS011;13071;48.868;9.996;2023-04-24T13:44:59;1.42;;;1.30;;
25079;SDS011;13071;48.868;9.996;2023-04-24T13:47:25;1.30;;;1.30;;
25079;SDS011;13071;48.868;9.996;2023-04-24T13:49:53;1.40;;;1.30;;
25079;SDS011;13071;48.868;9.996;2023-04-24T13:52:20;4.03;;;1.42;;
25079;SDS011;13071;48.868;9.996;2023-04-24T13:54:46;1.30;;;1.20;;
25079;SDS011;13071;48.868;9.996;2023-04-24T13:57:13;1.38;;;1.30;;
25079;SDS011;13071;48.868;9.996;2023-04-24T13:59:40;2.00;;;1.80;;
25079;SDS011;13071;48.868;9.996;2023-04-24T14:02:07;1.48;;;1.40;;
25079;SDS011;13071;48.868;9.996;2023-04-24T14:04:33;2.15;;;1.50;;
25079;SDS011;13071;48.868;9.996;2023-04-24T14:07:01;2.28;;;1.58;;
25079;SDS011;13071;48.868;9.996;2023-04-24T14:09:28;1.73;;;1.60;;
25079;SDS011;13071;48.868;9.996;2023-04-24T14:11:55;2.60;;;1.60;;
25079;SDS011;13071;48.868;9.996;2023-04-24T14:14:21;2.25;;;1.50;;
25079;SDS011;13071;48.868;9.996;2023-04-24T14:16:48;2.97;;;2.45;;
25079;SDS011;13071;48.868;9.996;2023-04-24T14:19:14;5.47;;;3.80;;
25079;SDS011;13071;48.868;9.996;2023-04-24T14:21:41;10.70;;;4.43;;
25079;SDS011;13071;48.868;9.996;2023-04-24T14:24:09;18.25;;;8.02;;
25079;SDS011;13071;48.868;9.996;2023-04-24T14:26:35;24.67;;;8.65;;
25079;SDS011;13071;48.868;9.996;2023-04-24T14:29:02;14.80;;;6.25;;
25079;SDS011;13071;48.868;9.996;2023-04-24T14:31:29;7.82;;;4.45;;
25079;SDS011;13071;48.868;9.996;2023-04-24T14:33:55;2.40;;;2.15;;
25079;SDS011;13071;48.868;9.996;2023-04-24T14:36:22;1.70;;;1.60;;
25079;SDS011;13071;48.868;9.996;2023-04-24T14:38:49;1.60;;;1.50;;
25079;SDS011;13071;48.868;9.996;2023-04-24T14:41:17;1.27;;;1.20;;
25079;SDS011;13071;48.868;9.996;2023-04-24T14:43:43;1.42;;;1.33;;
25079;SDS011;13071;48.868;9.996;2023-04-24T14:46:10;2.45;;;1.92;;
25079;SDS011;13071;48.868;9.996;2023-04-24T14:48:36;2.97;;;1.83;;
25079;SDS011;13071;48.868;9.996;2023-04-24T14:51:03;1.67;;;1.58;;
25079;SDS011;13071;48.868;9.996;2023-04-24T14:53:30;2.00;;;1.80;;